sensor_id;sensor_type;location;lat;lon;timestamp;P1;durP1;ratioP1;P2;durP2;ratioP2
8626;SDS011;4351;51.422;6.794;2023-04-06T00:02:01;14.60;;;8.90;;
8626;SDS011;4351;51.422;6.794;2023-04-06T00:04:29;11.90;;;8.03;;
8626;SDS011;4351;51.422;6.794;2023-04-06T00:06:57;11.63;;;7.57;;
8626;SDS011;4351;51.422;6.794;2023-04-06T00:09:26;10.97;;;7.70;;
8626;SDS011;4351;51.422;6.794;2023-04-06T00:11:54;11.83;;;7.77;;
8626;SDS011;4351;51.422;6.794;2023-04-06T00:14:22;12.50;;;7.50;;
8626;SDS011;4351;51.422;6.794;2023-04-06T00:16:50;11.00;;;7.47;;
8626;SDS011;4351;51.422;6.794;2023-04-06T00:19:18;14.47;;;8.03;;
8626;SDS011;4351;51.422;6.794;2023-04-06T00:21:46;12.50;;;7.93;;
8626;SDS011;4351;51.422;6.794;2023-04-06T00:24:14;14.07;;;8.20;;
8626;SDS011;4351;51.422;6.794;2023-04-06T00:26:43;13.20;;;7.70;;
8626;SDS011;4351;51.422;6.794;2023-04-06T00:29:11;15.47;;;8.40;;
8626;SDS011;4351;51.422;6.794;2023-04-06T00:31:39;15.53;;;8.20;;
8626;SDS011;4351;51.422;6.794;2023-04-06T00:34:07;12.00;;;8.30;;
8626;SDS011;4351;51.422;6.794;2023-04-06T00:36:34;12.37;;;7.70;;
8626;SDS011;4351;51.422;6.794;2023-04-06T00:39:02;11.30;;;8.00;;
8626;SDS011;4351;51.422;6.794;2023-04-06T00:41:31;12.90;;;7.70;;
8626;SDS011;4351;51.422;6.794;2023-04-06T00:44:00;11.70;;;7.90;;
8626;SDS011;4351;51.422;6.794;2023-04-06T00:46:28;12.83;;;7.60;;
8626;SDS011;4351;51.422;6.794;2023-04-06T00:48:56;12.90;;;7.80;;
8626;SDS011;4351;51.422;6.794;2023-04-06T00:51:24;12.87;;;7.70;;
8626;SDS011;4351;51.422;6.794;2023-04-06T00:53:53;13.73;;;8.10;;
8626;SDS011;4351;51.422;6.794;2023-04-06T00:56:22;13.57;;;7.80;;
8626;SDS011;4351;51.422;6.794;2023-04-06T00:58:53;14.90;;;7.53;;
8626;SDS011;4351;51.422;6.794;2023-04-06T01:01:22;11.90;;;7.90;;
8626;SDS011;4351;51.422;6.794;2023-04-06T01:03:54;12.07;;;7.63;;
8626;SDS011;4351;51.422;6.794;2023-04-06T01:06:22;12.60;;;7.87;;
8626;SDS011;4351;51.422;6.794;2023-04-06T01:08:57;11.00;;;7.23;;
8626;SDS011;4351;51.422;6.794;2023-04-06T01:11:26;12.07;;;6.87;;
8626;SDS011;4351;51.422;6.794;2023-04-06T01:13:54;13.10;;;7.50;;
8626;SDS011;4351;51.422;6.794;2023-04-06T01:16:42;12.20;;;7.80;;
8626;SDS011;4351;51.422;6.794;2023-04-06T01:19:14;11.87;;;7.40;;
8626;SDS011;4351;51.422;6.794;2023-04-06T01:21:47;14.83;;;8.00;;
8626;SDS011;4351;51.422;6.794;2023-04-06T01:24:32;12.17;;;7.80;;
8626;SDS011;4351;51.422;6.794;2023-04-06T01:27:07;11.63;;;7.60;;
8626;SDS011;4351;51.422;6.794;2023-04-06T01:29:58;11.17;;;7.30;;
8626;SDS011;4351;51.422;6.794;2023-04-06T01:32:52;12.70;;;7.30;;
8626;SDS011;4351;51.422;6.794;2023-04-06T01:35:42;10.73;;;7.20;;
8626;SDS011;4351;51.422;6.794;2023-04-06T01:38:16;10.70;;;6.90;;
8626;SDS011;4351;51.422;6.794;2023-04-06T01:40:48;9.93;;;6.97;;
8626;SDS011;4351;51.422;6.794;2023-04-06T01:43:19;11.83;;;7.23;;
8626;SDS011;4351;51.422;6.794;2023-04-06T01:46:08;12.03;;;7.43;;
8626;SDS011;4351;51.422;6.794;2023-04-06T01:48:39;13.13;;;7.77;;
8626;SDS011;4351;51.422;6.794;2023-04-06T01:51:15;11.70;;;7.50;;
8626;SDS011;4351;51.422;6.794;2023-04-06T01:53:49;14.97;;;8.60;;
8626;SDS011;4351;51.422;6.794;2023-04-06T01:56:21;12.00;;;7.50;;
8626;SDS011;4351;51.422;6.794;2023-04-06T01:59:02;13.37;;;7.10;;
8626;SDS011;4351;51.422;6.794;2023-04-06T02:01:36;15.20;;;7.93;;
8626;SDS011;4351;51.422;6.794;2023-04-06T02:04:04;11.60;;;7.50;;
8626;SDS011;4351;51.422;6.794;2023-04-06T02:06:32;14.90;;;8.13;;
8626;SDS011;4351;51.422;6.794;2023-04-06T02:09:02;14.97;;;8.57;;
8626;SDS011;4351;51.422;6.794;2023-04-06T02:11:31;12.87;;;8.13;;
8626;SDS011;4351;51.422;6.794;2023-04-06T02:13:59;13.90;;;8.13;;
8626;SDS011;4351;51.422;6.794;2023-04-06T02:16:31;16.57;;;8.80;;
8626;SDS011;4351;51.422;6.794;2023-04-06T02:18:59;12.60;;;8.53;;
8626;SDS011;4351;51.422;6.794;2023-04-06T02:21:27;15.27;;;9.63;;
8626;SDS011;4351;51.422;6.794;2023-04-06T02:23:55;15.97;;;8.83;;
8626;SDS011;4351;51.422;6.794;2023-04-06T02:26:23;15.20;;;8.87;;
8626;SDS011;4351;51.422;6.794;2023-04-06T02:28:53;15.67;;;9.13;;
8626;SDS011;4351;51.422;6.794;2023-04-06T02:31:21;16.77;;;8.57;;
8626;SDS011;4351;51.422;6.794;2023-04-06T02:33:50;16.20;;;9.47;;
8626;SDS011;4351;51.422;6.794;2023-04-06T02:36:18;14.97;;;8.90;;
8626;SDS011;4351;51.422;6.794;2023-04-06T02:38:46;18.00;;;9.17;;
8626;SDS011;4351;51.422;6.794;2023-04-06T02:41:14;15.73;;;9.70;;
8626;SDS011;4351;51.422;6.794;2023-04-06T02:43:42;15.10;;;9.37;;
8626;SDS011;4351;51.422;6.794;2023-04-06T02:46:20;20.47;;;10.73;;
8626;SDS011;4351;51.422;6.794;2023-04-06T02:48:48;19.07;;;10.40;;
8626;SDS011;4351;51.422;6.794;2023-04-06T02:51:16;17.63;;;9.93;;
8626;SDS011;4351;51.422;6.794;2023-04-06T02:53:50;16.20;;;9.93;;
8626;SDS011;4351;51.422;6.794;2023-04-06T02:56:18;14.53;;;10.27;;
8626;SDS011;4351;51.422;6.794;2023-04-06T02:58:49;17.03;;;10.03;;
8626;SDS011;4351;51.422;6.794;2023-04-06T03:01:20;15.33;;;9.90;;
8626;SDS011;4351;51.422;6.794;2023-04-06T03:03:54;18.17;;;10.57;;
8626;SDS011;4351;51.422;6.794;2023-04-06T03:06:25;18.33;;;10.30;;
8626;SDS011;4351;51.422;6.794;2023-04-06T03:08:57;17.67;;;10.37;;
8626;SDS011;4351;51.422;6.794;2023-04-06T03:11:25;15.73;;;10.37;;
8626;SDS011;4351;51.422;6.794;2023-04-06T03:13:53;15.17;;;10.57;;
8626;SDS011;4351;51.422;6.794;2023-04-06T03:16:23;16.03;;;10.50;;
8626;SDS011;4351;51.422;6.794;2023-04-06T03:18:51;16.20;;;10.13;;
8626;SDS011;4351;51.422;6.794;2023-04-06T03:21:20;18.83;;;10.90;;
8626;SDS011;4351;51.422;6.794;2023-04-06T03:23:50;18.20;;;11.17;;
8626;SDS011;4351;51.422;6.794;2023-04-06T03:26:18;15.50;;;9.77;;
8626;SDS011;4351;51.422;6.794;2023-04-06T03:28:46;17.17;;;10.67;;
8626;SDS011;4351;51.422;6.794;2023-04-06T03:31:16;16.33;;;10.23;;
8626;SDS011;4351;51.422;6.794;2023-04-06T03:34:11;15.57;;;10.13;;
8626;SDS011;4351;51.422;6.794;2023-04-06T03:36:39;17.20;;;10.13;;
8626;SDS011;4351;51.422;6.794;2023-04-06T03:39:07;17.63;;;11.00;;
8626;SDS011;4351;51.422;6.794;2023-04-06T03:41:39;16.73;;;10.40;;
8626;SDS011;4351;51.422;6.794;2023-04-06T03:44:28;19.40;;;10.97;;
8626;SDS011;4351;51.422;6.794;2023-04-06T03:46:56;17.47;;;10.93;;
8626;SDS011;4351;51.422;6.794;2023-04-06T03:49:26;16.23;;;11.20;;
8626;SDS011;4351;51.422;6.794;2023-04-06T03:51:55;17.50;;;10.57;;
8626;SDS011;4351;51.422;6.794;2023-04-06T03:54:23;17.60;;;10.60;;
8626;SDS011;4351;51.422;6.794;2023-04-06T03:56:51;16.50;;;9.90;;
8626;SDS011;4351;51.422;6.794;2023-04-06T03:59:19;15.10;;;10.30;;
8626;SDS011;4351;51.422;6.794;2023-04-06T04:01:47;18.27;;;10.43;;
8626;SDS011;4351;51.422;6.794;2023-04-06T04:04:16;15.37;;;9.87;;
8626;SDS011;4351;51.422;6.794;2023-04-06T04:06:45;14.50;;;10.40;;
8626;SDS011;4351;51.422;6.794;2023-04-06T04:09:13;16.97;;;11.40;;
8626;SDS011;4351;51.422;6.794;2023-04-06T04:11:41;16.33;;;11.00;;
8626;SDS011;4351;51.422;6.794;2023-04-06T04:14:09;18.47;;;10.23;;
8626;SDS011;4351;51.422;6.794;2023-04-06T04:16:37;14.67;;;9.97;;
8626;SDS011;4351;51.422;6.794;2023-04-06T04:19:05;17.90;;;10.60;;
8626;SDS011;4351;51.422;6.794;2023-04-06T04:21:41;20.70;;;10.37;;
8626;SDS011;4351;51.422;6.794;2023-04-06T04:24:14;16.03;;;9.50;;
8626;SDS011;4351;51.422;6.794;2023-04-06T04:26:44;15.57;;;9.43;;
8626;SDS011;4351;51.422;6.794;2023-04-06T04:29:14;13.87;;;9.30;;
8626;SDS011;4351;51.422;6.794;2023-04-06T04:31:45;18.40;;;9.80;;
8626;SDS011;4351;51.422;6.794;2023-04-06T04:34:25;20.17;;;10.03;;
8626;SDS011;4351;51.422;6.794;2023-04-06T04:36:53;13.70;;;9.30;;
8626;SDS011;4351;51.422;6.794;2023-04-06T04:39:34;14.67;;;9.73;;
8626;SDS011;4351;51.422;6.794;2023-04-06T04:42:05;15.50;;;9.50;;
8626;SDS011;4351;51.422;6.794;2023-04-06T04:44:36;13.93;;;9.13;;
8626;SDS011;4351;51.422;6.794;2023-04-06T04:47:04;15.80;;;10.13;;
8626;SDS011;4351;51.422;6.794;2023-04-06T04:49:40;15.77;;;9.57;;
8626;SDS011;4351;51.422;6.794;2023-04-06T04:52:15;13.33;;;9.23;;
8626;SDS011;4351;51.422;6.794;2023-04-06T04:55:10;14.13;;;8.93;;
8626;SDS011;4351;51.422;6.794;2023-04-06T04:57:43;17.17;;;9.27;;
8626;SDS011;4351;51.422;6.794;2023-04-06T05:00:11;18.00;;;9.73;;
8626;SDS011;4351;51.422;6.794;2023-04-06T05:02:43;15.43;;;9.23;;
8626;SDS011;4351;51.422;6.794;2023-04-06T05:05:16;14.17;;;8.50;;
8626;SDS011;4351;51.422;6.794;2023-04-06T05:07:44;14.13;;;9.27;;
8626;SDS011;4351;51.422;6.794;2023-04-06T05:10:24;16.93;;;8.90;;
8626;SDS011;4351;51.422;6.794;2023-04-06T05:12:57;16.93;;;9.43;;
8626;SDS011;4351;51.422;6.794;2023-04-06T05:15:26;12.90;;;8.83;;
8626;SDS011;4351;51.422;6.794;2023-04-06T05:18:00;14.50;;;8.47;;
8626;SDS011;4351;51.422;6.794;2023-04-06T05:20:32;17.07;;;9.40;;
8626;SDS011;4351;51.422;6.794;2023-04-06T05:23:00;14.30;;;9.07;;
8626;SDS011;4351;51.422;6.794;2023-04-06T05:25:31;16.13;;;9.40;;
8626;SDS011;4351;51.422;6.794;2023-04-06T05:28:10;16.37;;;9.27;;
8626;SDS011;4351;51.422;6.794;2023-04-06T05:30:40;14.77;;;8.53;;
8626;SDS011;4351;51.422;6.794;2023-04-06T05:33:09;17.40;;;9.10;;
8626;SDS011;4351;51.422;6.794;2023-04-06T05:35:53;13.60;;;9.37;;
8626;SDS011;4351;51.422;6.794;2023-04-06T05:38:22;15.13;;;8.80;;
8626;SDS011;4351;51.422;6.794;2023-04-06T05:40:53;18.30;;;9.07;;
8626;SDS011;4351;51.422;6.794;2023-04-06T05:43:25;15.23;;;9.20;;
8626;SDS011;4351;51.422;6.794;2023-04-06T05:45:56;16.30;;;8.87;;
8626;SDS011;4351;51.422;6.794;2023-04-06T05:48:24;13.20;;;8.30;;
8626;SDS011;4351;51.422;6.794;2023-04-06T05:50:52;13.80;;;8.43;;
8626;SDS011;4351;51.422;6.794;2023-04-06T05:53:27;16.30;;;8.17;;
8626;SDS011;4351;51.422;6.794;2023-04-06T05:56:01;12.97;;;8.27;;
8626;SDS011;4351;51.422;6.794;2023-04-06T05:58:30;13.67;;;8.47;;
8626;SDS011;4351;51.422;6.794;2023-04-06T06:00:59;13.40;;;9.00;;
8626;SDS011;4351;51.422;6.794;2023-04-06T06:03:35;17.47;;;9.10;;
8626;SDS011;4351;51.422;6.794;2023-04-06T06:06:05;13.90;;;8.60;;
8626;SDS011;4351;51.422;6.794;2023-04-06T06:08:44;13.00;;;8.67;;
8626;SDS011;4351;51.422;6.794;2023-04-06T06:11:16;16.17;;;9.23;;
8626;SDS011;4351;51.422;6.794;2023-04-06T06:13:44;15.63;;;8.67;;
8626;SDS011;4351;51.422;6.794;2023-04-06T06:16:13;12.03;;;8.03;;
8626;SDS011;4351;51.422;6.794;2023-04-06T06:18:44;13.53;;;8.50;;
8626;SDS011;4351;51.422;6.794;2023-04-06T06:21:13;12.90;;;9.10;;
8626;SDS011;4351;51.422;6.794;2023-04-06T06:23:41;14.53;;;8.20;;
8626;SDS011;4351;51.422;6.794;2023-04-06T06:26:14;14.60;;;8.43;;
8626;SDS011;4351;51.422;6.794;2023-04-06T06:28:44;13.57;;;8.27;;
8626;SDS011;4351;51.422;6.794;2023-04-06T06:31:13;13.00;;;7.90;;
8626;SDS011;4351;51.422;6.794;2023-04-06T06:33:53;18.63;;;8.33;;
8626;SDS011;4351;51.422;6.794;2023-04-06T06:36:21;12.93;;;8.37;;
8626;SDS011;4351;51.422;6.794;2023-04-06T06:38:49;11.40;;;7.60;;
8626;SDS011;4351;51.422;6.794;2023-04-06T06:41:19;9.67;;;7.50;;
8626;SDS011;4351;51.422;6.794;2023-04-06T06:43:50;13.27;;;7.87;;
8626;SDS011;4351;51.422;6.794;2023-04-06T06:46:18;10.20;;;7.33;;
8626;SDS011;4351;51.422;6.794;2023-04-06T06:48:46;15.07;;;7.87;;
8626;SDS011;4351;51.422;6.794;2023-04-06T06:51:14;12.87;;;7.97;;
8626;SDS011;4351;51.422;6.794;2023-04-06T06:53:41;151.07;;;23.63;;
8626;SDS011;4351;51.422;6.794;2023-04-06T06:56:09;21.37;;;9.10;;
8626;SDS011;4351;51.422;6.794;2023-04-06T06:58:37;12.33;;;8.40;;
8626;SDS011;4351;51.422;6.794;2023-04-06T07:01:09;15.03;;;7.90;;
8626;SDS011;4351;51.422;6.794;2023-04-06T07:03:50;13.10;;;7.90;;
8626;SDS011;4351;51.422;6.794;2023-04-06T07:06:18;12.90;;;8.73;;
8626;SDS011;4351;51.422;6.794;2023-04-06T07:08:59;12.30;;;7.50;;
8626;SDS011;4351;51.422;6.794;2023-04-06T07:11:27;13.73;;;8.03;;
8626;SDS011;4351;51.422;6.794;2023-04-06T07:13:55;13.07;;;7.43;;
8626;SDS011;4351;51.422;6.794;2023-04-06T07:16:24;16.43;;;7.63;;
8626;SDS011;4351;51.422;6.794;2023-04-06T07:18:53;12.83;;;8.00;;
8626;SDS011;4351;51.422;6.794;2023-04-06T07:21:22;12.60;;;7.80;;
8626;SDS011;4351;51.422;6.794;2023-04-06T07:23:50;18.13;;;8.70;;
8626;SDS011;4351;51.422;6.794;2023-04-06T07:26:17;16.10;;;8.23;;
8626;SDS011;4351;51.422;6.794;2023-04-06T07:28:46;16.43;;;8.60;;
8626;SDS011;4351;51.422;6.794;2023-04-06T07:31:14;13.00;;;7.77;;
8626;SDS011;4351;51.422;6.794;2023-04-06T07:33:44;13.73;;;7.80;;
8626;SDS011;4351;51.422;6.794;2023-04-06T07:36:13;15.50;;;8.57;;
8626;SDS011;4351;51.422;6.794;2023-04-06T07:38:52;14.53;;;8.40;;
8626;SDS011;4351;51.422;6.794;2023-04-06T07:41:22;10.80;;;7.57;;
8626;SDS011;4351;51.422;6.794;2023-04-06T07:43:52;12.57;;;8.37;;
8626;SDS011;4351;51.422;6.794;2023-04-06T07:46:20;12.67;;;8.00;;
8626;SDS011;4351;51.422;6.794;2023-04-06T07:48:49;13.33;;;8.50;;
8626;SDS011;4351;51.422;6.794;2023-04-06T07:51:18;12.57;;;8.30;;
8626;SDS011;4351;51.422;6.794;2023-04-06T07:53:46;10.83;;;8.40;;
8626;SDS011;4351;51.422;6.794;2023-04-06T07:56:14;13.00;;;8.20;;
8626;SDS011;4351;51.422;6.794;2023-04-06T07:58:42;14.53;;;8.90;;
8626;SDS011;4351;51.422;6.794;2023-04-06T08:01:10;13.23;;;7.87;;
8626;SDS011;4351;51.422;6.794;2023-04-06T08:03:39;15.77;;;8.70;;
8626;SDS011;4351;51.422;6.794;2023-04-06T08:06:09;12.47;;;8.63;;
8626;SDS011;4351;51.422;6.794;2023-04-06T08:08:37;13.63;;;8.70;;
8626;SDS011;4351;51.422;6.794;2023-04-06T08:11:05;15.37;;;9.03;;
8626;SDS011;4351;51.422;6.794;2023-04-06T08:13:47;13.60;;;8.43;;
8626;SDS011;4351;51.422;6.794;2023-04-06T08:16:14;13.70;;;8.50;;
8626;SDS011;4351;51.422;6.794;2023-04-06T08:18:43;14.83;;;9.03;;
8626;SDS011;4351;51.422;6.794;2023-04-06T08:21:12;13.63;;;9.00;;
8626;SDS011;4351;51.422;6.794;2023-04-06T08:23:40;14.40;;;8.60;;
8626;SDS011;4351;51.422;6.794;2023-04-06T08:26:08;12.10;;;8.60;;
8626;SDS011;4351;51.422;6.794;2023-04-06T08:28:37;13.07;;;8.33;;
8626;SDS011;4351;51.422;6.794;2023-04-06T08:31:05;16.07;;;9.27;;
8626;SDS011;4351;51.422;6.794;2023-04-06T08:33:34;13.80;;;8.83;;
8626;SDS011;4351;51.422;6.794;2023-04-06T08:36:06;14.33;;;9.57;;
8626;SDS011;4351;51.422;6.794;2023-04-06T08:38:37;13.10;;;9.37;;
8626;SDS011;4351;51.422;6.794;2023-04-06T08:41:08;15.30;;;9.80;;
8626;SDS011;4351;51.422;6.794;2023-04-06T08:43:41;13.30;;;9.07;;
8626;SDS011;4351;51.422;6.794;2023-04-06T08:46:11;16.53;;;9.80;;
8626;SDS011;4351;51.422;6.794;2023-04-06T08:48:44;13.23;;;8.90;;
8626;SDS011;4351;51.422;6.794;2023-04-06T08:51:15;15.47;;;9.50;;
8626;SDS011;4351;51.422;6.794;2023-04-06T08:53:44;15.63;;;9.77;;
8626;SDS011;4351;51.422;6.794;2023-04-06T08:56:13;14.67;;;9.23;;
8626;SDS011;4351;51.422;6.794;2023-04-06T08:58:42;14.90;;;9.20;;
8626;SDS011;4351;51.422;6.794;2023-04-06T09:01:11;15.03;;;9.30;;
8626;SDS011;4351;51.422;6.794;2023-04-06T09:03:42;17.00;;;9.80;;
8626;SDS011;4351;51.422;6.794;2023-04-06T09:06:11;12.17;;;8.60;;
8626;SDS011;4351;51.422;6.794;2023-04-06T09:08:41;13.87;;;9.07;;
8626;SDS011;4351;51.422;6.794;2023-04-06T09:11:10;17.93;;;10.27;;
8626;SDS011;4351;51.422;6.794;2023-04-06T09:13:45;13.37;;;9.47;;
8626;SDS011;4351;51.422;6.794;2023-04-06T09:16:14;18.20;;;10.23;;
8626;SDS011;4351;51.422;6.794;2023-04-06T09:18:42;15.40;;;9.83;;
8626;SDS011;4351;51.422;6.794;2023-04-06T09:21:16;18.10;;;10.80;;
8626;SDS011;4351;51.422;6.794;2023-04-06T09:23:58;15.63;;;10.30;;
8626;SDS011;4351;51.422;6.794;2023-04-06T09:26:30;16.90;;;10.03;;
8626;SDS011;4351;51.422;6.794;2023-04-06T09:29:01;16.07;;;10.40;;
8626;SDS011;4351;51.422;6.794;2023-04-06T09:31:36;15.80;;;10.03;;
8626;SDS011;4351;51.422;6.794;2023-04-06T09:34:04;20.57;;;11.03;;
8626;SDS011;4351;51.422;6.794;2023-04-06T09:36:33;17.37;;;9.83;;
8626;SDS011;4351;51.422;6.794;2023-04-06T09:39:05;15.00;;;10.63;;
8626;SDS011;4351;51.422;6.794;2023-04-06T09:41:35;16.23;;;10.30;;
8626;SDS011;4351;51.422;6.794;2023-04-06T09:44:04;18.77;;;11.43;;
8626;SDS011;4351;51.422;6.794;2023-04-06T09:46:34;17.07;;;10.90;;
8626;SDS011;4351;51.422;6.794;2023-04-06T09:49:24;15.53;;;9.83;;
8626;SDS011;4351;51.422;6.794;2023-04-06T09:51:55;17.30;;;10.80;;
8626;SDS011;4351;51.422;6.794;2023-04-06T09:54:27;16.83;;;10.60;;
8626;SDS011;4351;51.422;6.794;2023-04-06T09:56:58;16.73;;;10.77;;
8626;SDS011;4351;51.422;6.794;2023-04-06T09:59:35;17.07;;;10.70;;
8626;SDS011;4351;51.422;6.794;2023-04-06T10:02:12;17.17;;;10.63;;
8626;SDS011;4351;51.422;6.794;2023-04-06T10:04:48;16.03;;;10.10;;
8626;SDS011;4351;51.422;6.794;2023-04-06T10:07:21;17.73;;;11.40;;
8626;SDS011;4351;51.422;6.794;2023-04-06T10:09:50;18.30;;;11.07;;
8626;SDS011;4351;51.422;6.794;2023-04-06T10:12:22;19.60;;;11.57;;
8626;SDS011;4351;51.422;6.794;2023-04-06T10:14:56;20.03;;;11.43;;
8626;SDS011;4351;51.422;6.794;2023-04-06T10:17:27;19.20;;;11.60;;
8626;SDS011;4351;51.422;6.794;2023-04-06T10:19:57;18.57;;;11.17;;
8626;SDS011;4351;51.422;6.794;2023-04-06T10:22:39;19.60;;;11.23;;
8626;SDS011;4351;51.422;6.794;2023-04-06T10:25:11;17.40;;;10.43;;
8626;SDS011;4351;51.422;6.794;2023-04-06T10:27:41;19.53;;;11.13;;
8626;SDS011;4351;51.422;6.794;2023-04-06T10:30:09;19.30;;;11.43;;
8626;SDS011;4351;51.422;6.794;2023-04-06T10:32:37;19.70;;;11.10;;
8626;SDS011;4351;51.422;6.794;2023-04-06T10:35:13;19.50;;;11.90;;
8626;SDS011;4351;51.422;6.794;2023-04-06T10:37:46;22.13;;;12.13;;
8626;SDS011;4351;51.422;6.794;2023-04-06T10:40:19;19.67;;;12.07;;
8626;SDS011;4351;51.422;6.794;2023-04-06T10:42:54;20.37;;;11.83;;
8626;SDS011;4351;51.422;6.794;2023-04-06T10:45:24;19.63;;;11.77;;
8626;SDS011;4351;51.422;6.794;2023-04-06T10:47:53;22.20;;;12.20;;
8626;SDS011;4351;51.422;6.794;2023-04-06T10:50:21;21.73;;;11.77;;
8626;SDS011;4351;51.422;6.794;2023-04-06T10:52:58;22.87;;;12.17;;
8626;SDS011;4351;51.422;6.794;2023-04-06T10:55:27;17.80;;;11.03;;
8626;SDS011;4351;51.422;6.794;2023-04-06T10:57:57;22.87;;;12.17;;
8626;SDS011;4351;51.422;6.794;2023-04-06T11:00:25;21.03;;;11.70;;
8626;SDS011;4351;51.422;6.794;2023-04-06T11:03:08;21.97;;;11.03;;
8626;SDS011;4351;51.422;6.794;2023-04-06T11:05:36;18.47;;;10.77;;
8626;SDS011;4351;51.422;6.794;2023-04-06T11:08:04;22.67;;;11.97;;
8626;SDS011;4351;51.422;6.794;2023-04-06T11:10:32;20.87;;;11.87;;
8626;SDS011;4351;51.422;6.794;2023-04-06T11:13:02;20.17;;;11.43;;
8626;SDS011;4351;51.422;6.794;2023-04-06T11:15:33;22.60;;;11.60;;
8626;SDS011;4351;51.422;6.794;2023-04-06T11:18:04;22.53;;;12.47;;
8626;SDS011;4351;51.422;6.794;2023-04-06T11:20:32;23.63;;;12.57;;
8626;SDS011;4351;51.422;6.794;2023-04-06T11:23:01;22.23;;;13.00;;
8626;SDS011;4351;51.422;6.794;2023-04-06T11:25:29;24.67;;;13.73;;
8626;SDS011;4351;51.422;6.794;2023-04-06T11:27:58;24.60;;;13.40;;
8626;SDS011;4351;51.422;6.794;2023-04-06T11:30:28;22.50;;;13.63;;
8626;SDS011;4351;51.422;6.794;2023-04-06T11:33:00;23.60;;;14.07;;
8626;SDS011;4351;51.422;6.794;2023-04-06T11:35:28;25.07;;;13.83;;
8626;SDS011;4351;51.422;6.794;2023-04-06T11:38:02;21.33;;;13.23;;
8626;SDS011;4351;51.422;6.794;2023-04-06T11:40:30;20.10;;;12.73;;
8626;SDS011;4351;51.422;6.794;2023-04-06T11:42:59;19.77;;;12.77;;
8626;SDS011;4351;51.422;6.794;2023-04-06T11:45:38;22.77;;;13.00;;
8626;SDS011;4351;51.422;6.794;2023-04-06T11:48:17;21.30;;;12.43;;
8626;SDS011;4351;51.422;6.794;2023-04-06T11:50:46;22.63;;;13.53;;
8626;SDS011;4351;51.422;6.794;2023-04-06T11:53:15;23.30;;;13.20;;
8626;SDS011;4351;51.422;6.794;2023-04-06T11:55:42;23.57;;;13.70;;
8626;SDS011;4351;51.422;6.794;2023-04-06T11:58:13;24.83;;;13.33;;
8626;SDS011;4351;51.422;6.794;2023-04-06T12:00:43;24.70;;;13.90;;
8626;SDS011;4351;51.422;6.794;2023-04-06T12:03:13;21.63;;;13.00;;
8626;SDS011;4351;51.422;6.794;2023-04-06T12:05:41;24.33;;;13.57;;
8626;SDS011;4351;51.422;6.794;2023-04-06T12:08:09;21.67;;;12.90;;
8626;SDS011;4351;51.422;6.794;2023-04-06T12:10:37;24.40;;;13.43;;
8626;SDS011;4351;51.422;6.794;2023-04-06T12:13:05;19.43;;;11.70;;
8626;SDS011;4351;51.422;6.794;2023-04-06T12:15:33;18.60;;;11.23;;
8626;SDS011;4351;51.422;6.794;2023-04-06T12:18:02;23.33;;;12.63;;
8626;SDS011;4351;51.422;6.794;2023-04-06T12:20:31;23.20;;;13.23;;
8626;SDS011;4351;51.422;6.794;2023-04-06T12:22:59;20.00;;;12.63;;
8626;SDS011;4351;51.422;6.794;2023-04-06T12:25:27;26.47;;;13.27;;
8626;SDS011;4351;51.422;6.794;2023-04-06T12:27:57;20.70;;;12.03;;
8626;SDS011;4351;51.422;6.794;2023-04-06T12:30:25;20.80;;;12.00;;
8626;SDS011;4351;51.422;6.794;2023-04-06T12:32:53;21.70;;;12.27;;
8626;SDS011;4351;51.422;6.794;2023-04-06T12:35:24;21.07;;;12.03;;
8626;SDS011;4351;51.422;6.794;2023-04-06T12:37:52;20.40;;;12.80;;
8626;SDS011;4351;51.422;6.794;2023-04-06T12:40:20;20.90;;;12.90;;
8626;SDS011;4351;51.422;6.794;2023-04-06T12:42:48;24.27;;;13.27;;
8626;SDS011;4351;51.422;6.794;2023-04-06T12:45:15;22.23;;;13.10;;
8626;SDS011;4351;51.422;6.794;2023-04-06T12:47:46;23.33;;;13.03;;
8626;SDS011;4351;51.422;6.794;2023-04-06T12:50:13;22.77;;;13.27;;
8626;SDS011;4351;51.422;6.794;2023-04-06T12:52:42;20.60;;;12.20;;
8626;SDS011;4351;51.422;6.794;2023-04-06T12:55:10;21.50;;;12.90;;
8626;SDS011;4351;51.422;6.794;2023-04-06T12:57:38;18.17;;;12.07;;
8626;SDS011;4351;51.422;6.794;2023-04-06T13:00:08;19.63;;;12.27;;
8626;SDS011;4351;51.422;6.794;2023-04-06T13:02:36;20.43;;;11.97;;
8626;SDS011;4351;51.422;6.794;2023-04-06T13:05:05;20.40;;;11.23;;
8626;SDS011;4351;51.422;6.794;2023-04-06T13:07:33;18.77;;;11.40;;
8626;SDS011;4351;51.422;6.794;2023-04-06T13:10:02;16.30;;;10.50;;
8626;SDS011;4351;51.422;6.794;2023-04-06T13:12:33;15.47;;;9.77;;
8626;SDS011;4351;51.422;6.794;2023-04-06T13:15:01;15.10;;;9.37;;
8626;SDS011;4351;51.422;6.794;2023-04-06T13:17:29;15.27;;;9.17;;
8626;SDS011;4351;51.422;6.794;2023-04-06T13:19:57;14.17;;;8.23;;
8626;SDS011;4351;51.422;6.794;2023-04-06T13:22:29;12.20;;;8.37;;
8626;SDS011;4351;51.422;6.794;2023-04-06T13:24:57;11.07;;;7.67;;
8626;SDS011;4351;51.422;6.794;2023-04-06T13:27:26;12.93;;;7.67;;
8626;SDS011;4351;51.422;6.794;2023-04-06T13:29:55;12.10;;;6.90;;
8626;SDS011;4351;51.422;6.794;2023-04-06T13:32:23;9.40;;;6.40;;
8626;SDS011;4351;51.422;6.794;2023-04-06T13:34:53;10.63;;;6.23;;
8626;SDS011;4351;51.422;6.794;2023-04-06T13:37:22;11.33;;;6.80;;
8626;SDS011;4351;51.422;6.794;2023-04-06T13:39:50;11.50;;;7.70;;
8626;SDS011;4351;51.422;6.794;2023-04-06T13:42:18;11.57;;;7.37;;
8626;SDS011;4351;51.422;6.794;2023-04-06T13:44:47;13.50;;;7.87;;
8626;SDS011;4351;51.422;6.794;2023-04-06T13:47:16;16.77;;;7.87;;
8626;SDS011;4351;51.422;6.794;2023-04-06T13:49:44;13.83;;;8.13;;
8626;SDS011;4351;51.422;6.794;2023-04-06T13:52:13;10.40;;;7.17;;
8626;SDS011;4351;51.422;6.794;2023-04-06T13:54:41;15.73;;;8.20;;
8626;SDS011;4351;51.422;6.794;2023-04-06T13:57:09;13.93;;;8.40;;
8626;SDS011;4351;51.422;6.794;2023-04-06T13:59:38;12.67;;;8.40;;
8626;SDS011;4351;51.422;6.794;2023-04-06T14:02:09;12.90;;;8.83;;
8626;SDS011;4351;51.422;6.794;2023-04-06T14:04:39;13.70;;;8.80;;
8626;SDS011;4351;51.422;6.794;2023-04-06T14:07:07;14.10;;;8.83;;
8626;SDS011;4351;51.422;6.794;2023-04-06T14:09:35;12.77;;;9.40;;
8626;SDS011;4351;51.422;6.794;2023-04-06T14:12:03;15.27;;;9.47;;
8626;SDS011;4351;51.422;6.794;2023-04-06T14:14:31;14.57;;;8.53;;
8626;SDS011;4351;51.422;6.794;2023-04-06T14:16:59;11.40;;;8.50;;
8626;SDS011;4351;51.422;6.794;2023-04-06T14:19:28;18.20;;;8.00;;
8626;SDS011;4351;51.422;6.794;2023-04-06T14:21:56;12.03;;;7.83;;
8626;SDS011;4351;51.422;6.794;2023-04-06T14:24:25;10.63;;;6.80;;
8626;SDS011;4351;51.422;6.794;2023-04-06T14:26:53;12.20;;;7.63;;
8626;SDS011;4351;51.422;6.794;2023-04-06T14:29:21;11.60;;;8.07;;
8626;SDS011;4351;51.422;6.794;2023-04-06T14:31:49;11.87;;;7.67;;
8626;SDS011;4351;51.422;6.794;2023-04-06T14:34:17;11.70;;;7.60;;
8626;SDS011;4351;51.422;6.794;2023-04-06T14:36:46;12.60;;;7.57;;
8626;SDS011;4351;51.422;6.794;2023-04-06T14:39:14;12.83;;;7.63;;
8626;SDS011;4351;51.422;6.794;2023-04-06T14:41:43;11.10;;;7.13;;
8626;SDS011;4351;51.422;6.794;2023-04-06T14:44:11;10.80;;;7.67;;
8626;SDS011;4351;51.422;6.794;2023-04-06T14:46:39;11.87;;;7.57;;
8626;SDS011;4351;51.422;6.794;2023-04-06T14:49:07;11.40;;;8.40;;
8626;SDS011;4351;51.422;6.794;2023-04-06T14:51:35;12.53;;;8.30;;
8626;SDS011;4351;51.422;6.794;2023-04-06T14:54:04;14.20;;;8.37;;
8626;SDS011;4351;51.422;6.794;2023-04-06T14:56:32;12.17;;;8.43;;
8626;SDS011;4351;51.422;6.794;2023-04-06T14:59:00;14.30;;;8.53;;
8626;SDS011;4351;51.422;6.794;2023-04-06T15:01:33;11.17;;;8.17;;
8626;SDS011;4351;51.422;6.794;2023-04-06T15:04:02;11.20;;;8.30;;
8626;SDS011;4351;51.422;6.794;2023-04-06T15:06:30;11.60;;;8.20;;
8626;SDS011;4351;51.422;6.794;2023-04-06T15:08:58;12.93;;;9.00;;
8626;SDS011;4351;51.422;6.794;2023-04-06T15:11:28;12.73;;;8.70;;
8626;SDS011;4351;51.422;6.794;2023-04-06T15:13:56;13.00;;;9.07;;
8626;SDS011;4351;51.422;6.794;2023-04-06T15:16:23;15.07;;;8.90;;
8626;SDS011;4351;51.422;6.794;2023-04-06T15:18:51;16.90;;;10.07;;